Aviation Digital Data Service (ADDS)

Output produced by METARs form (0627 UTC 11 February 2016)
found at http://aviationweather.gov/adds/metars/
 
KPQI 110526Z 1105/1206 34004KT 5SM -SHSN OVC035 
     FM110900 34005KT P6SM VCSH OVC035 
     FM111500 34005KT P6SM VCSH OVC030 
     FM111800 34006KT P6SM VCSH OVC025